Time;durP1;ratioP1;P1;durP2;ratioP2;P2;SDS_P1;SDS_P2;PMS_P1;PMS_P2;Temp;Humidity;BMP_temperature;BMP_pressure;BME280_temperature;BME280_humidity;BME280_pressure;Samples;Min_cycle;Max_cycle;Signal;HPM_P1;HPM_P2
2023/09/02 00:02:06;;;;;;;2.78;1.23;;;18.40;99.90;;;;;;5031231;28;20045;-78
2023/09/02 00:04:33;;;;;;;3.80;1.58;;;18.40;99.90;;;;;;5017936;28;20045;-78
2023/09/02 00:07:00;;;;;;;2.45;1.10;;;18.40;99.90;;;;;;5025073;28;20476;-78
2023/09/02 00:09:26;;;;;;;2.58;1.00;;;18.40;99.90;;;;;;5030701;28;20045;-78
2023/09/02 00:11:53;;;;;;;3.88;1.80;;;18.30;99.90;;;;;;5020293;28;20406;-78
2023/09/02 00:14:20;;;;;;;2.45;1.42;;;18.30;99.90;;;;;;5026505;28;20057;-78
2023/09/02 00:16:47;;;;;;;5.72;1.48;;;18.30;99.90;;;;;;5030599;28;20500;-78
2023/09/02 00:19:13;;;;;;;5.88;2.33;;;18.30;99.90;;;;;;5022192;28;20037;-78
2023/09/02 00:21:40;;;;;;;6.18;1.70;;;18.20;99.90;;;;;;5022738;28;20091;-78
2023/09/02 00:24:07;;;;;;;4.13;1.40;;;18.20;99.90;;;;;;5029272;28;20080;-78
2023/09/02 00:26:34;;;;;;;5.63;1.48;;;18.20;99.90;;;;;;5020624;28;20095;-78
2023/09/02 00:29:01;;;;;;;2.92;1.58;;;18.20;99.90;;;;;;5025049;28;20042;-77
2023/09/02 00:31:29;;;;;;;1.92;1.30;;;18.10;99.90;;;;;;5028545;28;20045;-78
2023/09/02 00:33:56;;;;;;;2.45;1.20;;;18.10;99.90;;;;;;5025449;28;20046;-78
2023/09/02 00:36:23;;;;;;;2.45;1.27;;;18.10;99.90;;;;;;5021200;28;20099;-77
2023/09/02 00:38:49;;;;;;;6.50;1.30;;;18.10;99.90;;;;;;5027035;28;20050;-77
2023/09/02 00:41:30;;;;;;;2.50;1.60;;;18.00;99.90;;;;;;5021556;28;20045;-77
2023/09/02 00:43:57;;;;;;;2.22;1.23;;;18.00;99.90;;;;;;5024883;28;20049;-77
2023/09/02 00:46:24;;;;;;;2.00;1.30;;;18.00;99.90;;;;;;5027627;28;20500;-78
2023/09/02 00:48:51;;;;;;;3.35;1.33;;;18.00;99.90;;;;;;5025328;28;20471;-78
2023/09/02 00:51:18;;;;;;;3.60;1.40;;;17.90;99.90;;;;;;5021665;28;20107;-78
2023/09/02 00:53:45;;;;;;;3.28;1.48;;;17.90;99.90;;;;;;5027387;28;20050;-78
2023/09/02 00:56:13;;;;;;;3.70;1.67;;;17.90;99.90;;;;;;5011332;28;20045;-76
2023/09/02 00:58:41;;;;;;;3.65;1.42;;;17.80;99.90;;;;;;5024195;28;20069;-78
2023/09/02 01:01:09;;;;;;;5.05;1.30;;;17.80;99.90;;;;;;5025994;28;20050;-78
2023/09/02 01:03:38;;;;;;;3.33;1.13;;;17.80;99.90;;;;;;5029096;28;20041;-77
2023/09/02 01:06:07;;;;;;;1.75;1.10;;;17.80;99.90;;;;;;5022495;28;20053;-77
2023/09/02 01:08:34;;;;;;;4.20;1.30;;;17.80;99.90;;;;;;5025323;28;20049;-77
2023/09/02 01:11:01;;;;;;;5.25;1.25;;;17.70;99.90;;;;;;5027493;28;20480;-77
2023/09/02 01:13:29;;;;;;;6.30;1.77;;;17.70;99.90;;;;;;5023268;28;20049;-77
2023/09/02 01:15:56;;;;;;;2.47;1.27;;;17.60;99.90;;;;;;5022036;28;20045;-77
2023/09/02 01:18:25;;;;;;;2.65;1.40;;;17.60;99.90;;;;;;5026107;28;20050;-77
2023/09/02 01:21:15;;;;;;;2.90;1.10;;;17.60;99.90;;;;;;5018687;28;20127;-76
2023/09/02 01:23:51;;;;;;;;;;;17.50;99.90;;;;;;5027888;28;20064;-78
2023/09/02 01:26:34;;;;;;;3.55;1.50;;;17.50;99.90;;;;;;5034038;28;19983;-78
2023/09/02 01:29:06;;;;;;;4.28;1.60;;;17.50;99.90;;;;;;5027130;28;20049;-77
2023/09/02 01:31:35;;;;;;;2.00;1.38;;;17.50;99.90;;;;;;5025636;28;20533;-77
2023/09/02 01:34:06;;;;;;;2.97;1.73;;;17.50;99.90;;;;;;5024538;28;20050;-77
2023/09/02 01:36:33;;;;;;;2.50;1.30;;;17.40;99.90;;;;;;5017626;28;20049;-78
2023/09/02 01:39:01;;;;;;;3.70;1.40;;;17.40;99.90;;;;;;5025796;28;20501;-78
2023/09/02 01:41:29;;;;;;;3.95;1.50;;;17.40;99.90;;;;;;5025188;28;20087;-78
2023/09/02 01:43:56;;;;;;;2.28;1.65;;;17.40;99.90;;;;;;5022946;28;20045;-78
2023/09/02 01:46:23;;;;;;;2.95;1.45;;;17.40;99.90;;;;;;5022696;28;20041;-78
2023/09/02 01:48:50;;;;;;;2.55;1.20;;;17.30;99.90;;;;;;5024459;28;20140;-77
2023/09/02 01:51:18;;;;;;;4.13;1.52;;;17.30;99.90;;;;;;5018184;28;20092;-77
2023/09/02 01:53:44;;;;;;;2.00;1.38;;;17.30;99.90;;;;;;5007908;28;20078;-78
2023/09/02 01:56:12;;;;;;;4.15;1.52;;;17.30;99.90;;;;;;5029160;28;20054;-77
2023/09/02 01:58:38;;;;;;;2.50;1.30;;;17.20;99.90;;;;;;5020111;28;20057;-77
2023/09/02 02:01:05;;;;;;;2.97;1.25;;;17.20;99.90;;;;;;5026274;28;20077;-77
2023/09/02 02:03:40;;;;;;;4.43;1.40;;;17.20;99.90;;;;;;5031725;28;20476;-78
2023/09/02 02:06:09;;;;;;;3.03;1.33;;;17.20;99.90;;;;;;5017354;28;20489;-78
2023/09/02 02:08:45;;;;;;;3.53;1.63;;;17.20;99.90;;;;;;5024771;28;20107;-78
2023/09/02 02:11:13;;;;;;;2.05;1.52;;;17.10;99.90;;;;;;5029025;28;20418;-78
2023/09/02 02:13:42;;;;;;;2.60;1.33;;;17.10;99.90;;;;;;5019808;28;20046;-77
2023/09/02 02:16:08;;;;;;;3.28;1.50;;;17.10;99.90;;;;;;5022007;28;20114;-78
2023/09/02 02:18:35;;;;;;;6.32;2.20;;;17.10;99.90;;;;;;5025231;28;20408;-78
2023/09/02 02:21:04;;;;;;;3.75;1.55;;;17.10;99.90;;;;;;5016706;28;20042;-78
2023/09/02 02:23:31;;;;;;;4.82;1.30;;;17.10;99.90;;;;;;5024845;28;20489;-77
2023/09/02 02:26:02;;;;;;;3.33;1.63;;;17.00;99.90;;;;;;5028223;28;20045;-77
2023/09/02 02:28:29;;;;;;;3.65;1.48;;;17.00;99.90;;;;;;5024495;28;20456;-78
2023/09/02 02:30:59;;;;;;;4.30;1.50;;;17.00;99.90;;;;;;5023740;28;20501;-77
2023/09/02 02:33:27;;;;;;;3.53;1.63;;;17.00;99.90;;;;;;5031419;28;20072;-78
2023/09/02 02:35:54;;;;;;;4.00;1.35;;;17.00;99.90;;;;;;5019935;28;20045;-78
2023/09/02 02:38:21;;;;;;;4.55;1.48;;;16.90;99.90;;;;;;5030939;28;20045;-78
2023/09/02 02:40:48;;;;;;;3.80;2.20;;;17.00;99.90;;;;;;5032007;28;20104;-78
2023/09/02 02:43:14;;;;;;;3.45;1.50;;;16.90;99.90;;;;;;5023935;28;20132;-78
2023/09/02 02:45:42;;;;;;;8.20;1.75;;;16.90;99.90;;;;;;5025240;28;20038;-77
2023/09/02 02:48:15;;;;;;;3.70;1.77;;;16.90;99.90;;;;;;5031935;28;20037;-78
2023/09/02 02:50:42;;;;;;;4.35;2.65;;;16.90;99.90;;;;;;5022738;28;20046;-78
2023/09/02 02:53:08;;;;;;;2.95;1.20;;;16.90;99.90;;;;;;5028709;28;20497;-78
2023/09/02 02:55:35;;;;;;;4.05;1.38;;;16.90;99.90;;;;;;5031233;28;20080;-78
2023/09/02 02:58:02;;;;;;;2.33;1.52;;;16.80;99.90;;;;;;5023816;28;20052;-77
2023/09/02 03:00:28;;;;;;;1.77;1.20;;;16.80;99.90;;;;;;5022980;28;20107;-78
2023/09/02 03:02:55;;;;;;;1.40;1.30;;;16.80;99.90;;;;;;5030036;28;20049;-77
2023/09/02 03:05:22;;;;;;;2.13;1.30;;;16.80;99.90;;;;;;5024059;28;20053;-78
2023/09/02 03:07:49;;;;;;;2.25;1.52;;;16.80;99.90;;;;;;5026733;28;20646;-78
2023/09/02 03:10:15;;;;;;;4.68;1.60;;;16.80;99.90;;;;;;5030000;28;20045;-77
2023/09/02 03:12:42;;;;;;;4.20;1.38;;;16.80;99.90;;;;;;5024833;28;20050;-76
2023/09/02 03:15:09;;;;;;;4.00;1.60;;;16.80;99.90;;;;;;5022631;28;20573;-77
2023/09/02 03:17:36;;;;;;;9.93;2.92;;;16.80;99.90;;;;;;5028316;28;20049;-77
2023/09/02 03:20:03;;;;;;;1.75;1.40;;;16.80;99.90;;;;;;5029732;28;20054;-78
2023/09/02 03:22:30;;;;;;;2.08;1.35;;;16.80;99.90;;;;;;5026216;28;20042;-77
2023/09/02 03:24:57;;;;;;;3.35;1.40;;;16.70;99.90;;;;;;5028304;28;20041;-77
2023/09/02 03:27:23;;;;;;;5.00;1.60;;;16.70;99.90;;;;;;5025373;28;20099;-77
2023/09/02 03:29:50;;;;;;;7.75;1.77;;;16.70;99.90;;;;;;5021245;28;20045;-78
2023/09/02 03:32:17;;;;;;;3.25;1.40;;;16.70;99.90;;;;;;5026097;28;20049;-78
2023/09/02 03:34:44;;;;;;;6.10;1.80;;;16.70;99.90;;;;;;5031205;28;20100;-78
2023/09/02 03:37:10;;;;;;;3.40;1.88;;;16.70;99.90;;;;;;5025226;28;20501;-78
2023/09/02 03:39:37;;;;;;;4.50;1.60;;;16.70;99.90;;;;;;5026456;28;20041;-78
2023/09/02 03:42:04;;;;;;;2.13;1.30;;;16.60;99.90;;;;;;5025775;28;20045;-78
2023/09/02 03:44:31;;;;;;;4.18;1.27;;;16.60;99.90;;;;;;5020344;28;20049;-78
2023/09/02 03:46:58;;;;;;;3.13;1.83;;;16.60;99.90;;;;;;5008440;28;20042;-78
2023/09/02 03:49:25;;;;;;;4.50;1.52;;;16.60;99.90;;;;;;5014259;28;20048;-77
2023/09/02 03:51:51;;;;;;;1.77;1.30;;;16.60;99.90;;;;;;5022915;28;20417;-78
2023/09/02 03:54:19;;;;;;;3.78;1.58;;;16.60;99.90;;;;;;5024220;28;20119;-77
2023/09/02 03:56:45;;;;;;;2.85;1.50;;;16.60;99.90;;;;;;5012935;28;20468;-78
2023/09/02 03:59:12;;;;;;;6.03;1.60;;;16.50;99.90;;;;;;5000331;28;20106;-77
2023/09/02 04:01:39;;;;;;;1.50;1.30;;;16.50;99.90;;;;;;5024158;28;20464;-78
2023/09/02 04:04:05;;;;;;;2.20;1.58;;;16.50;99.90;;;;;;5030866;28;20099;-78
2023/09/02 04:06:32;;;;;;;3.88;1.77;;;16.50;99.90;;;;;;5023087;28;20120;-77
2023/09/02 04:08:59;;;;;;;2.28;1.70;;;16.50;99.90;;;;;;5024170;28;20038;-78
2023/09/02 04:11:26;;;;;;;2.55;1.30;;;16.50;99.90;;;;;;5030090;28;20041;-78
2023/09/02 04:13:52;;;;;;;6.18;1.58;;;16.50;99.90;;;;;;5019024;28;20100;-77
2023/09/02 04:16:19;;;;;;;9.73;1.67;;;16.50;99.90;;;;;;5029944;28;20081;-78
2023/09/02 04:18:46;;;;;;;5.32;1.48;;;16.50;99.90;;;;;;5037947;28;20124;-77
2023/09/02 04:21:13;;;;;;;2.42;1.58;;;16.50;99.90;;;;;;5024631;28;20045;-77
2023/09/02 04:23:41;;;;;;;3.47;1.55;;;16.40;99.90;;;;;;5020880;28;20073;-78
2023/09/02 04:26:08;;;;;;;3.13;1.60;;;16.40;99.90;;;;;;5029754;28;20041;-78
2023/09/02 04:28:35;;;;;;;2.15;1.38;;;16.40;99.90;;;;;;5020404;28;20046;-78
2023/09/02 04:31:02;;;;;;;2.63;1.65;;;16.40;99.90;;;;;;5023749;28;20505;-78
2023/09/02 04:33:29;;;;;;;4.60;1.98;;;16.40;99.90;;;;;;5029174;28;20045;-78
2023/09/02 04:35:56;;;;;;;3.75;1.80;;;16.40;99.90;;;;;;5020789;28;20088;-78
2023/09/02 04:38:22;;;;;;;2.65;1.92;;;16.40;99.90;;;;;;5022549;28;20425;-78
2023/09/02 04:40:49;;;;;;;4.45;1.95;;;16.30;99.90;;;;;;5027089;28;20394;-77
2023/09/02 04:43:17;;;;;;;10.63;2.47;;;16.30;99.90;;;;;;5021325;28;20468;-78
2023/09/02 04:45:44;;;;;;;5.15;2.08;;;16.30;99.90;;;;;;5024320;28;20041;-77
2023/09/02 04:48:11;;;;;;;2.97;1.40;;;16.30;99.90;;;;;;5028090;28;20045;-78
2023/09/02 04:50:38;;;;;;;3.35;1.75;;;16.30;99.90;;;;;;5024718;28;20073;-77
2023/09/02 04:53:07;;;;;;;3.13;1.40;;;16.30;99.90;;;;;;5020650;28;20492;-77
2023/09/02 04:55:38;;;;;;;5.85;2.30;;;16.30;99.90;;;;;;5025376;28;20103;-77
2023/09/02 04:58:06;;;;;;;5.63;1.48;;;16.30;99.90;;;;;;5031610;28;20046;-77
2023/09/02 05:00:33;;;;;;;4.85;1.83;;;16.30;99.90;;;;;;5031741;28;20067;-77
2023/09/02 05:03:01;;;;;;;4.30;1.65;;;16.30;99.90;;;;;;5033624;28;20064;-77
2023/09/02 05:05:29;;;;;;;5.53;1.80;;;16.30;99.90;;;;;;5028555;28;20063;-77
2023/09/02 05:07:56;;;;;;;5.47;2.17;;;16.30;99.90;;;;;;5019485;28;20050;-77
2023/09/02 05:10:24;;;;;;;2.92;1.50;;;16.30;99.90;;;;;;5025058;28;20050;-77
2023/09/02 05:12:51;;;;;;;3.65;1.73;;;16.30;99.90;;;;;;5026163;28;20050;-77
2023/09/02 05:15:18;;;;;;;5.22;2.35;;;16.30;99.90;;;;;;5024104;28;20046;-77
2023/09/02 05:17:44;;;;;;;5.18;1.80;;;16.30;99.90;;;;;;5022014;28;20127;-77
2023/09/02 05:20:11;;;;;;;5.15;1.80;;;16.30;99.90;;;;;;5029436;28;20099;-77
2023/09/02 05:22:38;;;;;;;3.10;1.63;;;16.30;99.90;;;;;;5019822;28;20049;-78
2023/09/02 05:25:05;;;;;;;2.78;1.85;;;16.30;99.90;;;;;;5024809;28;20078;-78
2023/09/02 05:27:32;;;;;;;5.07;2.03;;;16.30;99.90;;;;;;5030574;28;20041;-78
2023/09/02 05:29:59;;;;;;;5.28;1.70;;;16.30;99.90;;;;;;5023052;28;20050;-78
2023/09/02 05:32:25;;;;;;;6.82;1.80;;;16.30;99.90;;;;;;5025608;28;20112;-78
2023/09/02 05:34:52;;;;;;;5.20;1.80;;;16.30;99.90;;;;;;5014533;28;20049;-77
2023/09/02 05:37:19;;;;;;;6.30;1.98;;;16.30;99.90;;;;;;5016022;28;20119;-78
2023/09/02 05:39:46;;;;;;;6.65;1.90;;;16.30;99.90;;;;;;5022584;28;20099;-77
2023/09/02 05:42:12;;;;;;;2.92;1.65;;;16.40;99.90;;;;;;5028280;28;20486;-78
2023/09/02 05:44:41;;;;;;;3.85;1.70;;;16.40;99.90;;;;;;5023208;28;20041;-78
2023/09/02 05:47:08;;;;;;;3.55;1.67;;;16.40;99.90;;;;;;5023201;28;20056;-78
2023/09/02 05:49:39;;;;;;;2.70;1.70;;;16.50;99.90;;;;;;5025242;28;20048;-77
2023/09/02 05:52:06;;;;;;;9.48;5.25;;;16.50;99.90;;;;;;5017779;28;20095;-76
2023/09/02 05:54:33;;;;;;;7.78;3.80;;;16.60;99.90;;;;;;5021966;28;20056;-77
2023/09/02 05:56:59;;;;;;;9.98;5.28;;;16.60;99.90;;;;;;5028252;28;20517;-77
2023/09/02 05:59:26;;;;;;;10.95;7.55;;;16.70;99.90;;;;;;5023300;28;20096;-77
2023/09/02 06:01:56;;;;;;;4.22;3.53;;;16.70;99.90;;;;;;5022818;28;20120;-77
2023/09/02 06:04:23;;;;;;;5.93;2.83;;;16.80;99.90;;;;;;5031025;28;20095;-77
2023/09/02 06:06:49;;;;;;;2.97;2.30;;;16.80;99.90;;;;;;5023612;28;20131;-78
2023/09/02 06:09:16;;;;;;;4.53;2.13;;;16.90;99.90;;;;;;5024623;28;20132;-78
2023/09/02 06:11:43;;;;;;;3.08;2.00;;;17.00;99.90;;;;;;5031982;28;20050;-78
2023/09/02 06:14:10;;;;;;;5.45;1.80;;;17.00;99.90;;;;;;5010655;28;20564;-78
2023/09/02 06:16:37;;;;;;;5.60;2.28;;;17.10;99.90;;;;;;5027382;28;20405;-78
2023/09/02 06:19:03;;;;;;;4.53;2.35;;;17.20;99.90;;;;;;5031220;28;20649;-79
2023/09/02 06:21:30;;;;;;;3.22;1.92;;;17.20;99.90;;;;;;5028047;28;20046;-78
2023/09/02 06:23:57;;;;;;;3.35;2.00;;;17.30;99.90;;;;;;5023376;28;20037;-78
2023/09/02 06:26:25;;;;;;;2.17;1.50;;;17.30;99.90;;;;;;5028418;28;20092;-77
2023/09/02 06:28:52;;;;;;;3.75;2.08;;;17.40;99.90;;;;;;5028488;28;20064;-78
2023/09/02 06:31:19;;;;;;;2.78;1.70;;;17.50;99.90;;;;;;5024795;28;20049;-78
2023/09/02 06:33:45;;;;;;;5.75;2.20;;;17.50;99.90;;;;;;5029525;28;20588;-78
2023/09/02 06:36:14;;;;;;;4.30;2.13;;;17.60;99.90;;;;;;5028161;28;20123;-78
2023/09/02 06:38:41;;;;;;;3.22;2.08;;;17.60;99.90;;;;;;5022218;28;20399;-78
2023/09/02 06:41:12;;;;;;;5.07;2.20;;;17.70;99.90;;;;;;5030231;28;20049;-78
2023/09/02 06:43:39;;;;;;;4.15;1.92;;;17.70;99.90;;;;;;5032301;28;20099;-78
2023/09/02 06:46:15;;;;;;;5.93;2.42;;;17.70;99.90;;;;;;5024116;28;20046;-78
2023/09/02 06:48:44;;;;;;;4.95;2.67;;;17.80;99.90;;;;;;5025830;28;20080;-78
2023/09/02 06:51:11;;;;;;;3.83;2.20;;;17.80;99.90;;;;;;5027995;28;20053;-77
2023/09/02 06:53:38;;;;;;;8.05;2.78;;;17.80;99.90;;;;;;5023936;28;20045;-78
2023/09/02 06:56:07;;;;;;;3.95;2.47;;;17.80;99.90;;;;;;5030062;28;20104;-78
2023/09/02 06:58:36;;;;;;;5.35;2.63;;;17.80;99.90;;;;;;5011958;28;20054;-77
2023/09/02 07:01:03;;;;;;;6.47;2.63;;;17.90;99.90;;;;;;5020066;28;20485;-78
2023/09/02 07:03:30;;;;;;;5.32;2.45;;;17.90;99.90;;;;;;5027130;28;20045;-78
2023/09/02 07:06:06;;;;;;;6.00;2.85;;;17.90;99.90;;;;;;5023938;28;20409;-78
2023/09/02 07:08:34;;;;;;;4.50;2.58;;;17.90;99.90;;;;;;5025643;28;20084;-78
2023/09/02 07:11:00;;;;;;;3.58;2.55;;;17.90;99.90;;;;;;5034611;28;20068;-78
2023/09/02 07:13:27;;;;;;;5.03;2.45;;;17.90;99.90;;;;;;5036611;28;20468;-78
2023/09/02 07:16:02;;;;;;;4.88;2.17;;;17.90;99.90;;;;;;5022333;28;20469;-78
2023/09/02 07:18:28;;;;;;;3.05;2.17;;;17.90;99.90;;;;;;5025036;28;20049;-78
2023/09/02 07:21:02;;;;;;;3.38;2.20;;;18.00;99.90;;;;;;5032343;28;20046;-78
2023/09/02 07:23:31;;;;;;;4.15;2.03;;;18.00;99.90;;;;;;5027102;28;20107;-78
2023/09/02 07:26:04;;;;;;;3.50;2.08;;;18.00;99.90;;;;;;5025661;28;20096;-78
2023/09/02 07:28:32;;;;;;;3.95;2.30;;;18.10;99.90;;;;;;5013023;28;20045;-78
2023/09/02 07:31:01;;;;;;;2.00;1.67;;;18.10;99.90;;;;;;5017961;28;20050;-77
2023/09/02 07:33:29;;;;;;;8.02;2.58;;;18.10;99.90;;;;;;5026472;28;20049;-78
2023/09/02 07:35:57;;;;;;;6.75;2.88;;;18.10;99.90;;;;;;5030649;28;20048;-78
2023/09/02 07:38:25;;;;;;;4.35;2.10;;;18.20;99.90;;;;;;5025631;28;20072;-78
2023/09/02 07:40:52;;;;;;;5.47;3.15;;;18.20;99.90;;;;;;5027448;28;20052;-78
2023/09/02 07:43:18;;;;;;;7.57;2.50;;;18.20;99.90;;;;;;5032796;28;20049;-78
2023/09/02 07:45:47;;;;;;;3.72;2.60;;;18.30;99.90;;;;;;5021131;28;20041;-78
2023/09/02 07:48:14;;;;;;;6.10;2.50;;;18.30;99.90;;;;;;5028674;28;20050;-77
2023/09/02 07:50:42;;;;;;;5.00;2.35;;;18.30;99.90;;;;;;5040068;28;20076;-78
2023/09/02 07:53:08;;;;;;;6.10;2.40;;;18.40;99.90;;;;;;5031191;28;20050;-77
2023/09/02 07:55:35;;;;;;;6.78;2.42;;;18.40;99.90;;;;;;5027385;28;20129;-78
2023/09/02 07:58:03;;;;;;;6.53;2.53;;;18.50;99.90;;;;;;5031179;28;20049;-78
2023/09/02 08:00:33;;;;;;;5.78;2.45;;;18.50;99.90;;;;;;5022347;28;20424;-78
2023/09/02 08:03:00;;;;;;;3.55;2.60;;;18.60;99.90;;;;;;5024150;28;20421;-78
2023/09/02 08:05:27;;;;;;;5.00;1.98;;;18.60;99.90;;;;;;5013961;28;20041;-78
2023/09/02 08:07:54;;;;;;;2.90;1.90;;;18.60;99.90;;;;;;5025663;28;20508;-78
2023/09/02 08:10:21;;;;;;;6.57;2.28;;;18.60;99.90;;;;;;5024966;28;20052;-78
2023/09/02 08:12:47;;;;;;;2.30;1.70;;;18.70;99.90;;;;;;5030189;28;20081;-78
2023/09/02 08:15:14;;;;;;;4.80;2.10;;;18.70;99.90;;;;;;5005810;28;20112;-78
2023/09/02 08:17:42;;;;;;;3.95;1.98;;;18.80;99.90;;;;;;5024863;28;20056;-78
2023/09/02 08:20:11;;;;;;;3.50;2.30;;;18.80;99.90;;;;;;5032791;28;20658;-78
2023/09/02 08:22:39;;;;;;;4.32;1.95;;;18.90;99.90;;;;;;5031108;28;20092;-78
2023/09/02 08:25:06;;;;;;;4.75;1.92;;;18.90;99.90;;;;;;5027296;28;20050;-78
2023/09/02 08:27:33;;;;;;;2.80;1.90;;;19.00;99.90;;;;;;5029403;28;20053;-78
2023/09/02 08:30:01;;;;;;;3.40;1.90;;;19.10;99.90;;;;;;5025068;28;20088;-78
2023/09/02 08:32:31;;;;;;;4.65;2.13;;;19.10;99.90;;;;;;5023368;28;20050;-78
2023/09/02 08:34:58;;;;;;;;;;;19.10;99.90;;;;;;5029819;28;20053;-78
2023/09/02 08:37:24;;;;;;;2.30;1.60;;;19.20;99.90;;;;;;5031530;28;19929;-77
2023/09/02 08:39:51;;;;;;;5.93;2.22;;;19.30;99.90;;;;;;5031457;28;20045;-77
2023/09/02 08:42:18;;;;;;;4.60;2.10;;;19.30;99.90;;;;;;5015063;28;20424;-78
2023/09/02 08:44:48;;;;;;;2.75;2.15;;;19.30;99.90;;;;;;5033466;28;20103;-78
2023/09/02 08:47:20;;;;;;;3.92;1.92;;;19.40;99.90;;;;;;5027237;28;20050;-78
2023/09/02 08:49:49;;;;;;;2.90;1.73;;;19.50;99.90;;;;;;5036876;28;20046;-78
2023/09/02 08:52:16;;;;;;;6.15;2.45;;;19.50;99.90;;;;;;5034127;28;20472;-77
2023/09/02 08:54:44;;;;;;;4.05;1.98;;;19.60;99.90;;;;;;5029785;28;20429;-78
2023/09/02 08:57:15;;;;;;;3.08;1.70;;;19.60;99.90;;;;;;5033612;28;20111;-78
2023/09/02 08:59:43;;;;;;;2.50;1.58;;;19.70;99.90;;;;;;5032017;28;20064;-79
2023/09/02 09:02:13;;;;;;;1.70;1.35;;;19.80;99.90;;;;;;5022767;28;20620;-79
2023/09/02 09:04:40;;;;;;;4.60;1.88;;;19.90;99.90;;;;;;5027207;28;20080;-79
2023/09/02 09:07:09;;;;;;;3.35;1.60;;;20.00;99.90;;;;;;5028809;28;20045;-79
2023/09/02 09:09:39;;;;;;;3.55;1.40;;;20.10;99.90;;;;;;5022581;28;20045;-79
2023/09/02 09:12:09;;;;;;;;;;;20.20;99.90;;;;;;5027922;28;20448;-78
2023/09/02 09:14:37;;;;;;;7.78;2.35;;;20.30;99.90;;;;;;5024347;28;20282;-79
2023/09/02 09:17:04;;;;;;;2.60;1.95;;;20.40;99.90;;;;;;5025066;28;20095;-79
2023/09/02 09:19:32;;;;;;;5.43;2.20;;;20.50;99.90;;;;;;5028222;28;20104;-79
2023/09/02 09:22:02;;;;;;;5.82;2.25;;;20.50;99.90;;;;;;5030867;28;20037;-78
2023/09/02 09:24:29;;;;;;;7.03;2.85;;;20.50;99.90;;;;;;5022248;28;20056;-79
2023/09/02 09:26:58;;;;;;;3.88;2.08;;;20.60;99.90;;;;;;5026825;28;20046;-78
2023/09/02 09:29:25;;;;;;;4.95;2.25;;;20.70;99.90;;;;;;5028736;28;20049;-79
2023/09/02 09:32:14;;;;;;;7.70;2.38;;;20.70;99.90;;;;;;5024000;28;20103;-79
2023/09/02 09:34:42;;;;;;;2.55;2.20;;;20.80;99.90;;;;;;5026296;28;20056;-79
2023/09/02 09:37:10;;;;;;;4.00;1.80;;;20.80;99.90;;;;;;5028523;28;20422;-79
2023/09/02 09:39:43;;;;;;;4.63;1.77;;;20.90;99.90;;;;;;5021658;28;20053;-79
2023/09/02 09:42:12;;;;;;;3.58;1.80;;;20.90;99.90;;;;;;5025725;28;20046;-79
2023/09/02 09:44:52;;;;;;;2.47;1.80;;;21.00;99.90;;;;;;5028575;28;20052;-78
2023/09/02 09:47:20;;;;;;;;;;;21.00;99.90;;;;;;5022873;28;20100;-77
2023/09/02 09:49:49;;;;;;;2.63;1.70;;;21.10;99.90;;;;;;5024045;28;19929;-79
2023/09/02 09:52:18;;;;;;;3.70;1.73;;;21.10;99.90;;;;;;5027654;28;20057;-79
2023/09/02 09:54:52;;;;;;;2.78;1.58;;;21.20;99.90;;;;;;5021330;28;20053;-79
2023/09/02 09:57:37;;;;;;;3.67;1.48;;;21.20;99.90;;;;;;5023151;28;20140;-79
2023/09/02 10:00:06;;;;;;;2.17;1.48;;;21.30;99.90;;;;;;5031763;28;20556;-78
2023/09/02 10:02:33;;;;;;;5.35;1.63;;;21.30;99.90;;;;;;5027141;28;20041;-79
2023/09/02 10:05:02;;;;;;;3.90;1.88;;;21.40;99.90;;;;;;5027210;28;20496;-79
2023/09/02 10:07:31;;;;;;;2.97;1.98;;;21.40;99.90;;;;;;5030380;28;20056;-79
2023/09/02 10:10:00;;;;;;;11.05;2.05;;;21.40;99.90;;;;;;5019807;28;20038;-79
2023/09/02 10:12:33;;;;;;;6.22;1.85;;;21.40;99.90;;;;;;5026296;28;20057;-79
2023/09/02 10:15:05;;;;;;;5.82;1.92;;;21.40;99.90;;;;;;5026183;28;20048;-79
2023/09/02 10:17:34;;;;;;;3.22;1.85;;;21.40;99.90;;;;;;5023813;28;20049;-79
2023/09/02 10:20:01;;;;;;;3.65;1.58;;;21.60;99.90;;;;;;5026512;28;20045;-77
2023/09/02 10:22:31;;;;;;;5.88;1.92;;;21.60;99.90;;;;;;5027801;28;20045;-78
2023/09/02 10:25:19;;;;;;;4.57;2.03;;;21.70;99.90;;;;;;5018364;28;20045;-79
2023/09/02 10:31:39;;;;;;;3.65;1.75;;;21.80;99.90;;;;;;5019381;28;20049;-78
2023/09/02 10:34:12;;;;;;;4.45;2.00;;;22.00;99.90;;;;;;5024775;28;20084;-79
2023/09/02 10:36:41;;;;;;;2.72;1.50;;;22.00;99.90;;;;;;5033625;28;20057;-78
2023/09/02 10:39:16;;;;;;;7.00;1.73;;;22.00;99.90;;;;;;5021322;28;20045;-78
2023/09/02 10:41:47;;;;;;;3.75;1.80;;;22.00;99.90;;;;;;5026260;28;20284;-79
2023/09/02 10:44:14;;;;;;;5.30;1.80;;;22.10;99.90;;;;;;5029943;28;20075;-77
2023/09/02 10:46:41;;;;;;;3.42;1.90;;;22.10;99.90;;;;;;5021854;28;20060;-77
2023/09/02 10:49:08;;;;;;;4.32;2.13;;;22.30;99.90;;;;;;5023118;28;20049;-77
2023/09/02 10:51:38;;;;;;;4.93;1.55;;;22.30;99.90;;;;;;5033428;28;20057;-79
2023/09/02 10:54:06;;;;;;;3.45;1.85;;;22.30;99.90;;;;;;5025137;28;20490;-79
2023/09/02 10:56:34;;;;;;;5.30;1.40;;;22.30;99.90;;;;;;5025755;28;20048;-79
2023/09/02 10:59:06;;;;;;;2.63;1.63;;;22.30;99.90;;;;;;5031960;28;20053;-79
2023/09/02 11:01:47;;;;;;;3.38;1.50;;;22.40;99.90;;;;;;5027811;28;20052;-79
2023/09/02 11:04:16;;;;;;;4.22;1.50;;;22.40;99.90;;;;;;5024001;28;20096;-77
2023/09/02 11:07:20;;;;;;;2.07;1.57;;;22.40;99.90;;;;;;5030466;28;20108;-79
2023/09/02 11:09:56;;;;;;;5.80;2.13;;;22.50;99.90;;;;;;5019763;28;20050;-79
2023/09/02 11:12:23;;;;;;;5.53;1.75;;;22.60;99.90;;;;;;5028284;28;20057;-77
2023/09/02 11:15:08;;;;;;;2.42;1.50;;;22.60;99.90;;;;;;5032011;28;20076;-79
2023/09/02 11:17:36;;;;;;;2.95;1.42;;;22.70;99.90;;;;;;5022291;28;20064;-79
2023/09/02 11:20:09;;;;;;;3.28;1.90;;;22.80;99.90;;;;;;5025955;28;20076;-79
2023/09/02 11:22:59;;;;;;;2.80;1.60;;;22.80;99.90;;;;;;5034884;28;20050;-79
2023/09/02 11:25:41;;;;;;;4.35;1.83;;;22.80;99.90;;;;;;5024199;28;20422;-79
2023/09/02 11:28:08;;;;;;;3.05;1.60;;;22.90;99.90;;;;;;5028191;28;20045;-79
2023/09/02 11:30:37;;;;;;;4.63;1.35;;;23.00;99.90;;;;;;5033734;28;20050;-79
2023/09/02 11:33:06;;;;;;;2.88;1.60;;;23.00;99.90;;;;;;5021721;28;20076;-78
2023/09/02 11:35:37;;;;;;;3.20;1.60;;;23.10;99.90;;;;;;5025912;28;20105;-79
2023/09/02 11:38:18;;;;;;;2.17;1.17;;;23.10;99.90;;;;;;5030079;28;20049;-78
2023/09/02 11:40:46;;;;;;;4.55;1.50;;;23.20;99.90;;;;;;5027224;28;20484;-75
2023/09/02 11:43:19;;;;;;;5.68;1.70;;;23.20;99.90;;;;;;5010022;28;20041;-79
2023/09/02 11:45:47;;;;;;;2.35;1.50;;;23.30;99.90;;;;;;5030440;28;20124;-79
2023/09/02 11:48:14;;;;;;;4.57;1.85;;;23.40;99.90;;;;;;5022170;28;20192;-79
2023/09/02 11:50:41;;;;;;;3.70;1.83;;;23.40;99.90;;;;;;5029032;28;20104;-79
2023/09/02 11:53:07;;;;;;;6.43;1.70;;;23.50;99.90;;;;;;5035498;28;20103;-79
2023/09/02 11:55:36;;;;;;;5.13;1.55;;;23.50;99.90;;;;;;5026719;28;20387;-79
2023/09/02 11:58:07;;;;;;;2.97;1.40;;;23.50;99.90;;;;;;5029587;28;20452;-79
2023/09/02 12:00:41;;;;;;;3.50;1.60;;;23.70;99.90;;;;;;5027794;28;20095;-79
2023/09/02 12:03:08;;;;;;;1.98;1.45;;;23.70;99.90;;;;;;5021202;28;20045;-79
2023/09/02 12:05:50;;;;;;;3.00;1.40;;;23.70;99.90;;;;;;5026276;28;20080;-78
2023/09/02 12:08:17;;;;;;;3.47;1.70;;;23.70;99.90;;;;;;5023990;28;20049;-75
2023/09/02 12:10:48;;;;;;;2.67;1.60;;;23.80;99.90;;;;;;5011149;28;20128;-79
2023/09/02 12:13:19;;;;;;;3.80;1.40;;;23.70;99.90;;;;;;5026347;28;20468;-79
2023/09/02 12:15:51;;;;;;;4.55;1.40;;;23.80;99.90;;;;;;5030965;28;20077;-79
2023/09/02 12:18:23;;;;;;;2.58;1.50;;;23.90;99.90;;;;;;5017872;28;20133;-79
2023/09/02 12:20:50;;;;;;;2.03;1.20;;;23.90;99.90;;;;;;5027547;28;20057;-79
2023/09/02 12:23:17;;;;;;;4.78;2.00;;;24.00;99.90;;;;;;5033094;28;20103;-79
2023/09/02 12:26:09;;;;;;;2.50;1.23;;;24.00;99.90;;;;;;5025200;28;20501;-79
2023/09/02 12:28:36;;;;;;;2.33;1.60;;;24.00;99.90;;;;;;5025859;28;20045;-79
2023/09/02 12:31:04;;;;;;;3.83;1.33;;;24.00;99.90;;;;;;5032015;28;20041;-79
2023/09/02 12:33:32;;;;;;;3.33;1.27;;;24.00;99.90;;;;;;5020965;28;20721;-79
2023/09/02 12:36:02;;;;;;;1.80;1.23;;;24.10;99.90;;;;;;5027059;28;20061;-79
2023/09/02 12:38:29;;;;;;;4.45;1.40;;;24.10;99.90;;;;;;5029866;28;20509;-79
2023/09/02 12:40:57;;;;;;;2.45;1.40;;;24.20;99.90;;;;;;5028655;28;20045;-79
2023/09/02 12:43:26;;;;;;;2.13;1.20;;;24.20;99.90;;;;;;5025655;28;20099;-77
2023/09/02 12:45:55;;;;;;;4.88;1.50;;;24.30;99.90;;;;;;5026437;28;20141;-79
2023/09/02 12:48:22;;;;;;;3.72;1.60;;;24.30;99.90;;;;;;5025231;28;20049;-80
2023/09/02 12:50:49;;;;;;;4.10;1.70;;;24.30;99.90;;;;;;5023735;28;20073;-79
2023/09/02 12:53:16;;;;;;;2.90;1.38;;;24.40;99.90;;;;;;5026497;28;20136;-79
2023/09/02 12:55:44;;;;;;;3.72;1.60;;;24.50;99.90;;;;;;5023066;28;20061;-79
2023/09/02 12:58:11;;;;;;;1.88;1.25;;;24.50;99.90;;;;;;5027363;28;20041;-79
2023/09/02 13:00:37;;;;;;;3.03;1.45;;;24.50;99.90;;;;;;5027842;28;20053;-78